AAY220 KDCA-KRDU
Flight info
| Callsign | AAY220 |
|---|---|
| Flight time | 0h 47m |
| Altitude | 30000 |
| Route | JDUBB4 MELTN ALDAN4 |
| Aircraft | A320/M-SDE3FGHIRWY/LB1 |
Departure
| Time | 2026-05-05 20:37 |
|---|---|
| Airport | Ronald Reagan Washington National Airport (KDCA) |
Arrival
| Time | 2026-05-05 21:24 |
|---|---|
| Airport | Raleigh-Durham International Airport (KRDU) |
| Time | Latitude | Longitude | Altitude | Speed | Heading |
|---|---|---|---|---|---|
| 2026-05-05 20:19 | 38.85362 | -77.04153 | 24 ft | 0 kts | 315° |
| 2026-05-05 20:29 | 38.85354 | -77.04144 | 25 ft | 2 kts | 327° |
| 2026-05-05 20:29 | 38.85338 | -77.04134 | 27 ft | 3 kts | 357° |
| 2026-05-05 20:29 | 38.85321 | -77.04136 | 25 ft | 3 kts | 33° |
| 2026-05-05 20:30 | 38.85308 | -77.04152 | 24 ft | 2 kts | 68° |
| 2026-05-05 20:30 | 38.85307 | -77.04153 | 24 ft | 0 kts | 68° |
| 2026-05-05 20:32 | 38.85310 | -77.04144 | 23 ft | 2 kts | 70° |
| 2026-05-05 20:32 | 38.85318 | -77.04113 | 26 ft | 10 kts | 72° |
| 2026-05-05 20:32 | 38.85333 | -77.04052 | 22 ft | 1 kts | 74° |
| 2026-05-05 20:32 | 38.85332 | -77.04043 | 22 ft | 1 kts | 92° |
| 2026-05-05 20:33 | 38.85310 | -77.04003 | 21 ft | 11 kts | 140° |
| 2026-05-05 20:33 | 38.85327 | -77.03938 | 19 ft | 10 kts | 12° |
| 2026-05-05 20:33 | 38.85416 | -77.03940 | 24 ft | 14 kts | 352° |
| 2026-05-05 20:33 | 38.85506 | -77.03953 | 23 ft | 12 kts | 355° |
| 2026-05-05 20:34 | 38.85583 | -77.03960 | 24 ft | 8 kts | 356° |
| 2026-05-05 20:34 | 38.85594 | -77.03961 | 24 ft | 0 kts | 356° |
| 2026-05-05 20:34 | 38.85600 | -77.03961 | 24 ft | 2 kts | 355° |
| 2026-05-05 20:34 | 38.85626 | -77.03964 | 24 ft | 5 kts | 355° |
| 2026-05-05 20:35 | 38.85673 | -77.03969 | 24 ft | 8 kts | 355° |
| 2026-05-05 20:35 | 38.85762 | -77.03977 | 25 ft | 18 kts | 355° |
| 2026-05-05 20:35 | 38.85896 | -77.03990 | 24 ft | 19 kts | 2° |
| 2026-05-05 20:35 | 38.86019 | -77.03956 | 22 ft | 18 kts | 17° |
| 2026-05-05 20:36 | 38.86063 | -77.03876 | 20 ft | 9 kts | 149° |
| 2026-05-05 20:36 | 38.86042 | -77.03867 | 20 ft | 0 kts | 167° |
| 2026-05-05 20:36 | 38.85894 | -77.03851 | 26 ft | 55 kts | 176° |
| 2026-05-05 20:36 | 38.85290 | -77.03794 | 19 ft | 115 kts | 177° |
| 2026-05-05 20:37 | 38.84382 | -77.03715 | 370 ft | 130 kts | 175° |
| 2026-05-05 20:37 | 38.83487 | -77.03671 | 1005 ft | 136 kts | 185° |
| 2026-05-05 20:37 | 38.82433 | -77.03682 | 1316 ft | 168 kts | 185° |
| 2026-05-05 20:37 | 38.81178 | -77.03656 | 1714 ft | 191 kts | 182° |
| 2026-05-05 20:38 | 38.79750 | -77.03601 | 2114 ft | 217 kts | 182° |
| 2026-05-05 20:38 | 38.78177 | -77.03554 | 2648 ft | 238 kts | 182° |
| 2026-05-05 20:38 | 38.76493 | -77.03551 | 3531 ft | 242 kts | 189° |
| 2026-05-05 20:38 | 38.74968 | -77.04393 | 4438 ft | 244 kts | 223° |
| 2026-05-05 20:39 | 38.74145 | -77.06272 | 5334 ft | 252 kts | 253° |
| 2026-05-05 20:39 | 38.73968 | -77.08539 | 6367 ft | 257 kts | 264° |
| 2026-05-05 20:39 | 38.74011 | -77.10838 | 7315 ft | 260 kts | 268° |
| 2026-05-05 20:39 | 38.73984 | -77.13118 | 8299 ft | 257 kts | 258° |
| 2026-05-05 20:40 | 38.73500 | -77.15319 | 9270 ft | 255 kts | 249° |
| 2026-05-05 20:40 | 38.72829 | -77.17403 | 10199 ft | 257 kts | 246° |
| 2026-05-05 20:40 | 38.72050 | -77.19571 | 10566 ft | 279 kts | 245° |
| 2026-05-05 20:40 | 38.71082 | -77.21814 | 11043 ft | 294 kts | 236° |
| 2026-05-05 20:41 | 38.69678 | -77.23787 | 11749 ft | 304 kts | 224° |
| 2026-05-05 20:41 | 38.68067 | -77.25533 | 12489 ft | 309 kts | 223° |
| 2026-05-05 20:41 | 38.66416 | -77.27343 | 13252 ft | 314 kts | 224° |
| 2026-05-05 20:41 | 38.64750 | -77.29181 | 13955 ft | 318 kts | 224° |
| 2026-05-05 20:42 | 38.63055 | -77.31054 | 14646 ft | 322 kts | 224° |
| 2026-05-05 20:42 | 38.61365 | -77.32921 | 15349 ft | 326 kts | 224° |
| 2026-05-05 20:42 | 38.59628 | -77.34837 | 15998 ft | 331 kts | 223° |
| 2026-05-05 20:42 | 38.57870 | -77.36772 | 16656 ft | 335 kts | 223° |
| 2026-05-05 20:43 | 38.56088 | -77.38730 | 17283 ft | 339 kts | 223° |
| 2026-05-05 20:43 | 38.54305 | -77.40688 | 17943 ft | 343 kts | 223° |
| 2026-05-05 20:43 | 38.52472 | -77.42699 | 18530 ft | 347 kts | 223° |
| 2026-05-05 20:43 | 38.50652 | -77.44696 | 19094 ft | 350 kts | 223° |
| 2026-05-05 20:44 | 38.48785 | -77.46740 | 19665 ft | 354 kts | 223° |
| 2026-05-05 20:44 | 38.46902 | -77.48802 | 20249 ft | 357 kts | 223° |
| 2026-05-05 20:44 | 38.45029 | -77.50850 | 20813 ft | 360 kts | 222° |
| 2026-05-05 20:44 | 38.43113 | -77.52947 | 21393 ft | 363 kts | 222° |
| 2026-05-05 20:45 | 38.39181 | -77.57115 | 22522 ft | 371 kts | 216° |
| 2026-05-05 20:45 | 38.37058 | -77.58944 | 23089 ft | 374 kts | 216° |
| 2026-05-05 20:45 | 38.34878 | -77.60814 | 23627 ft | 377 kts | 216° |
| 2026-05-05 20:46 | 38.32687 | -77.62693 | 24082 ft | 380 kts | 216° |
| 2026-05-05 20:46 | 38.30504 | -77.64555 | 24520 ft | 383 kts | 216° |
| 2026-05-05 20:46 | 38.28272 | -77.66456 | 24966 ft | 386 kts | 216° |
| 2026-05-05 20:46 | 38.26029 | -77.68378 | 25389 ft | 389 kts | 217° |
| 2026-05-05 20:47 | 38.23803 | -77.70291 | 25780 ft | 392 kts | 217° |
| 2026-05-05 20:47 | 38.21535 | -77.72250 | 25900 ft | 390 kts | 217° |
| 2026-05-05 20:47 | 38.19327 | -77.74152 | 25922 ft | 374 kts | 217° |
| 2026-05-05 20:47 | 38.17206 | -77.75978 | 25947 ft | 367 kts | 217° |
| 2026-05-05 20:48 | 38.15088 | -77.77799 | 25946 ft | 365 kts | 217° |
| 2026-05-05 20:48 | 38.13003 | -77.79588 | 25948 ft | 365 kts | 217° |
| 2026-05-05 20:48 | 38.10890 | -77.81399 | 25951 ft | 364 kts | 217° |
| 2026-05-05 20:48 | 38.08787 | -77.83203 | 25950 ft | 364 kts | 217° |
| 2026-05-05 20:49 | 38.06710 | -77.84978 | 25951 ft | 364 kts | 217° |
| 2026-05-05 20:49 | 38.04607 | -77.86775 | 25951 ft | 364 kts | 217° |
| 2026-05-05 20:49 | 38.02497 | -77.88578 | 25951 ft | 364 kts | 217° |
| 2026-05-05 20:49 | 38.00389 | -77.90378 | 25951 ft | 364 kts | 217° |
| 2026-05-05 20:50 | 37.98306 | -77.92154 | 25947 ft | 364 kts | 217° |
| 2026-05-05 20:50 | 37.96199 | -77.93948 | 25948 ft | 364 kts | 217° |
| 2026-05-05 20:50 | 37.94094 | -77.95739 | 25948 ft | 364 kts | 217° |
| 2026-05-05 20:50 | 37.92018 | -77.97508 | 25944 ft | 364 kts | 217° |
| 2026-05-05 20:51 | 37.89913 | -77.99302 | 25943 ft | 364 kts | 217° |
| 2026-05-05 20:51 | 37.87810 | -78.01089 | 25943 ft | 364 kts | 217° |
| 2026-05-05 20:51 | 37.85696 | -78.02883 | 25943 ft | 364 kts | 217° |
| 2026-05-05 20:51 | 37.83616 | -78.04649 | 25945 ft | 364 kts | 217° |
| 2026-05-05 20:52 | 37.81507 | -78.06440 | 25945 ft | 363 kts | 217° |
| 2026-05-05 20:52 | 37.79421 | -78.08210 | 25946 ft | 363 kts | 217° |
| 2026-05-05 20:52 | 37.77313 | -78.09999 | 25946 ft | 363 kts | 217° |
| 2026-05-05 20:52 | 37.75221 | -78.11772 | 25741 ft | 357 kts | 217° |
| 2026-05-05 20:53 | 37.73198 | -78.13483 | 25498 ft | 350 kts | 217° |
| 2026-05-05 20:53 | 37.71177 | -78.15195 | 25256 ft | 347 kts | 217° |
| 2026-05-05 20:53 | 37.69170 | -78.16895 | 25015 ft | 345 kts | 216° |
| 2026-05-05 20:53 | 37.67173 | -78.18584 | 24781 ft | 343 kts | 216° |
| 2026-05-05 20:54 | 37.65210 | -78.20245 | 24552 ft | 342 kts | 216° |
| 2026-05-05 20:54 | 37.63234 | -78.21915 | 24313 ft | 340 kts | 216° |
| 2026-05-05 20:54 | 37.61258 | -78.23581 | 24080 ft | 339 kts | 216° |
| 2026-05-05 20:54 | 37.59320 | -78.25210 | 23852 ft | 337 kts | 215° |
| 2026-05-05 20:55 | 37.57365 | -78.26854 | 23626 ft | 335 kts | 215° |
| 2026-05-05 20:55 | 37.55442 | -78.28468 | 23364 ft | 334 kts | 215° |
| 2026-05-05 20:55 | 37.53505 | -78.30097 | 23085 ft | 332 kts | 215° |
| 2026-05-05 20:55 | 37.51582 | -78.31715 | 22823 ft | 331 kts | 215° |
| 2026-05-05 20:56 | 37.49680 | -78.33314 | 22559 ft | 330 kts | 215° |
| 2026-05-05 20:56 | 37.47761 | -78.34923 | 22292 ft | 329 kts | 215° |
| 2026-05-05 20:56 | 37.45876 | -78.36502 | 22032 ft | 328 kts | 216° |
| 2026-05-05 20:56 | 37.43972 | -78.38097 | 21770 ft | 327 kts | 216° |
| 2026-05-05 20:57 | 37.42063 | -78.39692 | 21510 ft | 326 kts | 216° |
| 2026-05-05 20:57 | 37.40191 | -78.41254 | 21256 ft | 325 kts | 216° |
| 2026-05-05 20:57 | 37.38302 | -78.42832 | 21003 ft | 324 kts | 216° |
| 2026-05-05 20:57 | 37.36452 | -78.44382 | 20752 ft | 323 kts | 216° |
| 2026-05-05 20:58 | 37.34575 | -78.45955 | 20504 ft | 322 kts | 216° |
| 2026-05-05 20:58 | 37.32705 | -78.47519 | 20256 ft | 321 kts | 216° |
| 2026-05-05 20:58 | 37.30867 | -78.49056 | 20011 ft | 320 kts | 216° |
| 2026-05-05 20:58 | 37.29006 | -78.50609 | 19762 ft | 319 kts | 216° |
| 2026-05-05 20:59 | 37.27157 | -78.52151 | 19519 ft | 318 kts | 216° |
| 2026-05-05 20:59 | 37.25312 | -78.53687 | 19288 ft | 317 kts | 216° |
| 2026-05-05 20:59 | 37.23498 | -78.55196 | 19064 ft | 316 kts | 216° |
| 2026-05-05 20:59 | 37.21656 | -78.56727 | 18822 ft | 315 kts | 216° |
| 2026-05-05 21:00 | 37.19831 | -78.58246 | 18591 ft | 314 kts | 216° |
| 2026-05-05 21:00 | 37.18024 | -78.59749 | 18362 ft | 313 kts | 216° |
| 2026-05-05 21:00 | 37.16206 | -78.61257 | 18116 ft | 312 kts | 216° |
| 2026-05-05 21:00 | 37.14392 | -78.62761 | 17849 ft | 310 kts | 216° |
| 2026-05-05 21:01 | 37.12613 | -78.64239 | 17586 ft | 309 kts | 216° |
| 2026-05-05 21:01 | 37.10816 | -78.65733 | 17322 ft | 307 kts | 216° |
| 2026-05-05 21:01 | 37.09033 | -78.67214 | 17065 ft | 306 kts | 216° |
| 2026-05-05 21:01 | 37.07281 | -78.68669 | 16824 ft | 304 kts | 216° |
| 2026-05-05 21:02 | 37.05511 | -78.70136 | 16565 ft | 303 kts | 216° |
| 2026-05-05 21:02 | 37.03754 | -78.71589 | 16307 ft | 301 kts | 216° |
| 2026-05-05 21:02 | 37.02025 | -78.73020 | 16057 ft | 300 kts | 216° |
| 2026-05-05 21:02 | 37.00287 | -78.74461 | 15808 ft | 298 kts | 216° |
| 2026-05-05 21:03 | 36.98556 | -78.75893 | 15559 ft | 297 kts | 216° |
| 2026-05-05 21:03 | 36.96835 | -78.77314 | 15319 ft | 296 kts | 216° |
| 2026-05-05 21:03 | 36.95139 | -78.78716 | 15081 ft | 294 kts | 216° |
| 2026-05-05 21:03 | 36.93428 | -78.80127 | 14953 ft | 293 kts | 216° |
| 2026-05-05 21:04 | 36.92291 | -78.81064 | 14953 ft | 293 kts | 216° |
| 2026-05-05 21:04 | 36.90584 | -78.82472 | 14966 ft | 294 kts | 216° |
| 2026-05-05 21:04 | 36.88890 | -78.83868 | 14959 ft | 294 kts | 216° |
| 2026-05-05 21:04 | 36.87180 | -78.85277 | 14962 ft | 294 kts | 216° |
| 2026-05-05 21:05 | 36.85465 | -78.86688 | 14959 ft | 293 kts | 216° |
| 2026-05-05 21:05 | 36.83751 | -78.88096 | 14962 ft | 293 kts | 216° |
| 2026-05-05 21:05 | 36.82060 | -78.89487 | 14960 ft | 293 kts | 216° |
| 2026-05-05 21:05 | 36.80370 | -78.90878 | 14965 ft | 293 kts | 216° |
| 2026-05-05 21:06 | 36.78657 | -78.92288 | 14970 ft | 293 kts | 216° |
| 2026-05-05 21:06 | 36.76943 | -78.93696 | 14962 ft | 293 kts | 216° |
| 2026-05-05 21:06 | 36.75257 | -78.95079 | 14960 ft | 293 kts | 216° |
| 2026-05-05 21:06 | 36.73546 | -78.96484 | 14967 ft | 293 kts | 216° |
| 2026-05-05 21:07 | 36.71835 | -78.97886 | 14967 ft | 294 kts | 216° |
| 2026-05-05 21:07 | 36.70120 | -78.99283 | 14964 ft | 294 kts | 214° |
| 2026-05-05 21:07 | 36.68251 | -79.00336 | 14964 ft | 298 kts | 199° |
| 2026-05-05 21:07 | 36.66205 | -79.00759 | 14835 ft | 304 kts | 185° |
| 2026-05-05 21:08 | 36.64098 | -79.00490 | 14595 ft | 307 kts | 171° |
| 2026-05-05 21:08 | 36.62008 | -78.99884 | 14357 ft | 306 kts | 171° |
| 2026-05-05 21:08 | 36.59936 | -78.99278 | 14121 ft | 305 kts | 171° |
| 2026-05-05 21:08 | 36.57888 | -78.98674 | 13882 ft | 304 kts | 171° |
| 2026-05-05 21:09 | 36.55830 | -78.98065 | 13654 ft | 302 kts | 171° |
| 2026-05-05 21:09 | 36.53783 | -78.97464 | 13390 ft | 300 kts | 171° |
| 2026-05-05 21:09 | 36.51747 | -78.96870 | 13131 ft | 299 kts | 172° |
| 2026-05-05 21:09 | 36.49746 | -78.96291 | 12877 ft | 297 kts | 172° |
| 2026-05-05 21:10 | 36.47732 | -78.95709 | 12618 ft | 295 kts | 172° |
| 2026-05-05 21:10 | 36.45756 | -78.95136 | 12387 ft | 291 kts | 172° |
| 2026-05-05 21:10 | 36.43782 | -78.94562 | 12069 ft | 288 kts | 172° |
| 2026-05-05 21:10 | 36.41819 | -78.93988 | 11722 ft | 289 kts | 170° |
| 2026-05-05 21:11 | 36.39957 | -78.93077 | 11373 ft | 294 kts | 155° |
| 2026-05-05 21:11 | 36.38301 | -78.91541 | 11013 ft | 300 kts | 140° |
| 2026-05-05 21:11 | 36.36840 | -78.89677 | 10647 ft | 300 kts | 140° |
| 2026-05-05 21:11 | 36.35408 | -78.87841 | 10290 ft | 298 kts | 140° |
| 2026-05-05 21:12 | 36.33956 | -78.85988 | 9926 ft | 297 kts | 140° |
| 2026-05-05 21:12 | 36.32528 | -78.84170 | 9537 ft | 295 kts | 140° |
| 2026-05-05 21:12 | 36.31099 | -78.82347 | 9182 ft | 292 kts | 140° |
| 2026-05-05 21:12 | 36.29690 | -78.80547 | 8815 ft | 288 kts | 140° |
| 2026-05-05 21:13 | 36.28289 | -78.78779 | 8452 ft | 285 kts | 140° |
| 2026-05-05 21:13 | 36.26898 | -78.77030 | 8090 ft | 283 kts | 140° |
| 2026-05-05 21:13 | 36.25542 | -78.75313 | 7736 ft | 279 kts | 139° |
| 2026-05-05 21:13 | 36.24190 | -78.73600 | 7366 ft | 277 kts | 139° |
| 2026-05-05 21:14 | 36.22853 | -78.71904 | 7017 ft | 267 kts | 139° |
| 2026-05-05 21:14 | 36.21591 | -78.70298 | 6685 ft | 252 kts | 139° |
| 2026-05-05 21:14 | 36.20405 | -78.68789 | 6375 ft | 240 kts | 139° |
| 2026-05-05 21:14 | 36.19260 | -78.67333 | 6059 ft | 229 kts | 140° |
| 2026-05-05 21:15 | 36.18178 | -78.65952 | 5791 ft | 223 kts | 139° |
| 2026-05-05 21:15 | 36.17099 | -78.64559 | 5575 ft | 222 kts | 139° |
| 2026-05-05 21:15 | 36.16033 | -78.63173 | 5368 ft | 221 kts | 139° |
| 2026-05-05 21:15 | 36.14986 | -78.61810 | 5207 ft | 220 kts | 139° |
| 2026-05-05 21:16 | 36.13940 | -78.60448 | 5083 ft | 218 kts | 139° |
| 2026-05-05 21:16 | 36.12918 | -78.59115 | 5003 ft | 207 kts | 139° |
| 2026-05-05 21:16 | 36.11971 | -78.57871 | 5052 ft | 191 kts | 139° |
| 2026-05-05 21:16 | 36.11044 | -78.56721 | 5023 ft | 184 kts | 147° |
| 2026-05-05 21:17 | 36.09966 | -78.55974 | 5021 ft | 178 kts | 165° |
| 2026-05-05 21:17 | 36.08760 | -78.55708 | 5025 ft | 174 kts | 181° |
| 2026-05-05 21:17 | 36.07565 | -78.55937 | 5029 ft | 174 kts | 199° |
| 2026-05-05 21:17 | 36.06505 | -78.56622 | 4989 ft | 174 kts | 216° |
| 2026-05-05 21:18 | 36.05651 | -78.57630 | 4833 ft | 166 kts | 221° |
| 2026-05-05 21:18 | 36.04848 | -78.58628 | 4637 ft | 160 kts | 221° |
| 2026-05-05 21:18 | 36.04074 | -78.59589 | 4432 ft | 157 kts | 221° |
| 2026-05-05 21:18 | 36.03309 | -78.60541 | 4207 ft | 154 kts | 221° |
| 2026-05-05 21:19 | 36.02549 | -78.61484 | 4006 ft | 153 kts | 220° |
| 2026-05-05 21:19 | 36.01808 | -78.62404 | 3808 ft | 150 kts | 220° |
| 2026-05-05 21:19 | 36.01103 | -78.63282 | 3620 ft | 139 kts | 221° |
| 2026-05-05 21:19 | 36.00435 | -78.64111 | 3450 ft | 133 kts | 221° |
| 2026-05-05 21:20 | 35.99780 | -78.64923 | 3279 ft | 133 kts | 220° |
| 2026-05-05 21:20 | 35.99139 | -78.65718 | 3106 ft | 132 kts | 221° |
| 2026-05-05 21:20 | 35.98484 | -78.66530 | 2937 ft | 133 kts | 221° |
| 2026-05-05 21:20 | 35.97827 | -78.67344 | 2756 ft | 133 kts | 220° |
| 2026-05-05 21:21 | 35.97173 | -78.68156 | 2584 ft | 131 kts | 221° |
| 2026-05-05 21:21 | 35.96545 | -78.68935 | 2409 ft | 128 kts | 221° |
| 2026-05-05 21:21 | 35.95915 | -78.69714 | 2241 ft | 131 kts | 222° |
| 2026-05-05 21:21 | 35.95261 | -78.70524 | 2071 ft | 133 kts | 222° |
| 2026-05-05 21:22 | 35.94606 | -78.71336 | 1889 ft | 134 kts | 218° |
| 2026-05-05 21:22 | 35.93954 | -78.72144 | 1735 ft | 133 kts | 220° |
| 2026-05-05 21:22 | 35.93317 | -78.72933 | 1552 ft | 131 kts | 220° |
| 2026-05-05 21:22 | 35.92674 | -78.73729 | 1366 ft | 131 kts | 222° |
| 2026-05-05 21:23 | 35.92025 | -78.74531 | 1190 ft | 132 kts | 220° |
| 2026-05-05 21:23 | 35.91376 | -78.75338 | 984 ft | 133 kts | 220° |
| 2026-05-05 21:23 | 35.90746 | -78.76185 | 863 ft | 139 kts | 220° |
| 2026-05-05 21:23 | 35.90029 | -78.77015 | 695 ft | 142 kts | 223° |
| 2026-05-05 21:24 | 35.89340 | -78.77876 | 455 ft | 134 kts | 221° |
| 2026-05-05 21:24 | 35.88755 | -78.78582 | 405 ft | 99 kts | 224° |
| 2026-05-05 21:24 | 35.88389 | -78.79030 | 390 ft | 49 kts | 224° |
| 2026-05-05 21:24 | 35.88180 | -78.79287 | 394 ft | 40 kts | 225° |
| 2026-05-05 21:25 | 35.87999 | -78.79477 | 392 ft | 27 kts | 190° |
| 2026-05-05 21:25 | 35.87920 | -78.79425 | 391 ft | 9 kts | 122° |
| 2026-05-05 21:25 | 35.87889 | -78.79362 | 390 ft | 8 kts | 123° |
| 2026-05-05 21:25 | 35.87845 | -78.79308 | 389 ft | 8 kts | 139° |
| 2026-05-05 21:26 | 35.87842 | -78.79305 | 389 ft | 0 kts | 139° |